sensor_id;sensor_type;location;lat;lon;timestamp;temperature;humidity
7738;DHT22;29398;45.328;5.558;2022-11-20T00:00:08;9.40;99.90
7738;DHT22;29398;45.328;5.558;2022-11-20T00:01:14;9.40;99.90
7738;DHT22;29398;45.328;5.558;2022-11-20T00:02:16;9.40;99.90
7738;DHT22;29398;45.328;5.558;2022-11-20T00:03:19;9.50;99.90
7738;DHT22;29398;45.328;5.558;2022-11-20T00:04:20;9.50;99.90
7738;DHT22;29398;45.328;5.558;2022-11-20T00:05:22;9.50;99.90
7738;DHT22;29398;45.328;5.558;2022-11-20T00:06:24;9.50;99.90
7738;DHT22;29398;45.328;5.558;2022-11-20T00:07:26;9.50;99.90
7738;DHT22;29398;45.328;5.558;2022-11-20T00:08:28;9.50;99.90
7738;DHT22;29398;45.328;5.558;2022-11-20T00:09:30;9.50;99.90
7738;DHT22;29398;45.328;5.558;2022-11-20T00:10:32;9.50;99.90
7738;DHT22;29398;45.328;5.558;2022-11-20T00:11:33;9.50;99.90
7738;DHT22;29398;45.328;5.558;2022-11-20T00:12:35;9.50;99.90
7738;DHT22;29398;45.328;5.558;2022-11-20T00:13:36;9.50;99.90
7738;DHT22;29398;45.328;5.558;2022-11-20T00:14:38;9.50;99.90
7738;DHT22;29398;45.328;5.558;2022-11-20T00:15:39;9.60;99.90
7738;DHT22;29398;45.328;5.558;2022-11-20T00:16:41;9.50;99.90
7738;DHT22;29398;45.328;5.558;2022-11-20T00:17:42;9.60;99.90
7738;DHT22;29398;45.328;5.558;2022-11-20T00:18:47;9.60;99.90
7738;DHT22;29398;45.328;5.558;2022-11-20T00:19:48;9.60;99.90
7738;DHT22;29398;45.328;5.558;2022-11-20T00:20:50;9.60;99.90
7738;DHT22;29398;45.328;5.558;2022-11-20T00:21:51;9.60;99.90
7738;DHT22;29398;45.328;5.558;2022-11-20T00:22:54;9.60;99.90
7738;DHT22;29398;45.328;5.558;2022-11-20T00:23:57;9.60;99.90
7738;DHT22;29398;45.328;5.558;2022-11-20T00:24:59;9.60;99.90
7738;DHT22;29398;45.328;5.558;2022-11-20T00:26:02;9.60;99.90
7738;DHT22;29398;45.328;5.558;2022-11-20T00:27:04;9.60;99.90
7738;DHT22;29398;45.328;5.558;2022-11-20T00:28:05;9.60;99.90
7738;DHT22;29398;45.328;5.558;2022-11-20T00:29:09;9.70;99.90
7738;DHT22;29398;45.328;5.558;2022-11-20T00:30:10;9.70;99.90
7738;DHT22;29398;45.328;5.558;2022-11-20T00:31:14;9.70;99.90
7738;DHT22;29398;45.328;5.558;2022-11-20T00:32:15;9.70;99.90
7738;DHT22;29398;45.328;5.558;2022-11-20T00:33:17;9.60;99.90
7738;DHT22;29398;45.328;5.558;2022-11-20T00:34:19;9.60;99.90
7738;DHT22;29398;45.328;5.558;2022-11-20T00:35:21;9.60;99.90
7738;DHT22;29398;45.328;5.558;2022-11-20T00:36:25;9.70;99.90
7738;DHT22;29398;45.328;5.558;2022-11-20T00:37:27;9.60;99.90
7738;DHT22;29398;45.328;5.558;2022-11-20T00:38:28;9.60;99.90
7738;DHT22;29398;45.328;5.558;2022-11-20T00:39:30;9.60;99.90
7738;DHT22;29398;45.328;5.558;2022-11-20T00:40:31;9.60;99.90
7738;DHT22;29398;45.328;5.558;2022-11-20T00:41:33;9.60;99.90
7738;DHT22;29398;45.328;5.558;2022-11-20T00:42:34;9.60;99.90
7738;DHT22;29398;45.328;5.558;2022-11-20T00:43:36;9.60;99.90
7738;DHT22;29398;45.328;5.558;2022-11-20T00:44:37;9.50;99.90
7738;DHT22;29398;45.328;5.558;2022-11-20T00:45:40;9.60;99.90
7738;DHT22;29398;45.328;5.558;2022-11-20T00:46:43;9.50;99.90
7738;DHT22;29398;45.328;5.558;2022-11-20T00:47:45;9.60;99.90
7738;DHT22;29398;45.328;5.558;2022-11-20T00:48:47;9.60;99.90
7738;DHT22;29398;45.328;5.558;2022-11-20T00:49:50;9.50;99.90
7738;DHT22;29398;45.328;5.558;2022-11-20T00:50:51;9.60;99.90
7738;DHT22;29398;45.328;5.558;2022-11-20T00:51:53;9.60;99.90
7738;DHT22;29398;45.328;5.558;2022-11-20T00:52:54;9.60;99.90
7738;DHT22;29398;45.328;5.558;2022-11-20T00:53:56;9.60;99.90
7738;DHT22;29398;45.328;5.558;2022-11-20T00:54:58;9.60;99.90
7738;DHT22;29398;45.328;5.558;2022-11-20T00:56:01;9.60;99.90
7738;DHT22;29398;45.328;5.558;2022-11-20T00:57:03;9.50;99.90
7738;DHT22;29398;45.328;5.558;2022-11-20T00:58:05;9.50;99.90
7738;DHT22;29398;45.328;5.558;2022-11-20T00:59:08;9.60;99.90
7738;DHT22;29398;45.328;5.558;2022-11-20T01:00:10;9.50;99.90
7738;DHT22;29398;45.328;5.558;2022-11-20T01:01:13;9.50;99.90
7738;DHT22;29398;45.328;5.558;2022-11-20T01:02:15;9.60;99.90
7738;DHT22;29398;45.328;5.558;2022-11-20T01:03:17;9.50;99.90
7738;DHT22;29398;45.328;5.558;2022-11-20T01:04:19;9.60;99.90
7738;DHT22;29398;45.328;5.558;2022-11-20T01:05:23;9.60;99.90
7738;DHT22;29398;45.328;5.558;2022-11-20T01:06:25;9.60;99.90
7738;DHT22;29398;45.328;5.558;2022-11-20T01:07:28;9.60;99.90
7738;DHT22;29398;45.328;5.558;2022-11-20T01:08:32;9.60;99.90
7738;DHT22;29398;45.328;5.558;2022-11-20T01:09:34;9.60;99.90
7738;DHT22;29398;45.328;5.558;2022-11-20T01:10:35;9.60;99.90
7738;DHT22;29398;45.328;5.558;2022-11-20T01:11:39;9.60;99.90
7738;DHT22;29398;45.328;5.558;2022-11-20T01:12:40;9.60;99.90
7738;DHT22;29398;45.328;5.558;2022-11-20T01:13:43;9.60;99.90
7738;DHT22;29398;45.328;5.558;2022-11-20T01:14:47;9.60;99.90
7738;DHT22;29398;45.328;5.558;2022-11-20T01:15:49;9.60;99.90
7738;DHT22;29398;45.328;5.558;2022-11-20T01:16:51;9.60;99.90
7738;DHT22;29398;45.328;5.558;2022-11-20T01:17:53;9.60;99.90
7738;DHT22;29398;45.328;5.558;2022-11-20T01:18:56;9.60;99.90
7738;DHT22;29398;45.328;5.558;2022-11-20T01:19:59;9.60;99.90
7738;DHT22;29398;45.328;5.558;2022-11-20T01:21:03;9.60;99.90
7738;DHT22;29398;45.328;5.558;2022-11-20T01:22:05;9.60;99.90
7738;DHT22;29398;45.328;5.558;2022-11-20T01:23:06;9.60;99.90
7738;DHT22;29398;45.328;5.558;2022-11-20T01:24:11;9.60;99.90
7738;DHT22;29398;45.328;5.558;2022-11-20T01:25:13;9.60;99.90
7738;DHT22;29398;45.328;5.558;2022-11-20T01:26:18;9.60;99.90
7738;DHT22;29398;45.328;5.558;2022-11-20T01:27:19;9.60;99.90
7738;DHT22;29398;45.328;5.558;2022-11-20T01:28:21;9.60;99.90
7738;DHT22;29398;45.328;5.558;2022-11-20T01:29:24;9.50;99.90
7738;DHT22;29398;45.328;5.558;2022-11-20T01:30:26;9.60;99.90
7738;DHT22;29398;45.328;5.558;2022-11-20T01:31:29;9.60;99.90
7738;DHT22;29398;45.328;5.558;2022-11-20T01:32:31;9.50;99.90
7738;DHT22;29398;45.328;5.558;2022-11-20T01:33:32;9.60;99.90
7738;DHT22;29398;45.328;5.558;2022-11-20T01:34:34;9.60;99.90
7738;DHT22;29398;45.328;5.558;2022-11-20T01:35:36;9.40;99.90
7738;DHT22;29398;45.328;5.558;2022-11-20T01:36:39;9.50;99.90
7738;DHT22;29398;45.328;5.558;2022-11-20T01:37:41;9.60;99.90
7738;DHT22;29398;45.328;5.558;2022-11-20T01:38:42;9.50;99.90
7738;DHT22;29398;45.328;5.558;2022-11-20T01:39:44;9.50;99.90
7738;DHT22;29398;45.328;5.558;2022-11-20T01:40:45;9.50;99.90
7738;DHT22;29398;45.328;5.558;2022-11-20T01:41:55;9.50;99.90
7738;DHT22;29398;45.328;5.558;2022-11-20T01:43:16;9.50;99.90
7738;DHT22;29398;45.328;5.558;2022-11-20T01:44:51;9.50;99.90
7738;DHT22;29398;45.328;5.558;2022-11-20T01:46:04;9.50;99.90
7738;DHT22;29398;45.328;5.558;2022-11-20T01:47:07;9.50;99.90
7738;DHT22;29398;45.328;5.558;2022-11-20T01:48:11;9.50;99.90
7738;DHT22;29398;45.328;5.558;2022-11-20T01:49:16;9.50;99.90
7738;DHT22;29398;45.328;5.558;2022-11-20T01:50:23;9.50;99.90
7738;DHT22;29398;45.328;5.558;2022-11-20T01:51:29;9.50;99.90
7738;DHT22;29398;45.328;5.558;2022-11-20T01:52:39;9.50;99.90
7738;DHT22;29398;45.328;5.558;2022-11-20T01:53:41;9.50;99.90
7738;DHT22;29398;45.328;5.558;2022-11-20T01:54:47;9.50;99.90
7738;DHT22;29398;45.328;5.558;2022-11-20T01:55:53;9.50;99.90
7738;DHT22;29398;45.328;5.558;2022-11-20T01:56:57;9.50;99.90
7738;DHT22;29398;45.328;5.558;2022-11-20T01:58:00;9.50;99.90
7738;DHT22;29398;45.328;5.558;2022-11-20T01:59:05;9.50;99.90
7738;DHT22;29398;45.328;5.558;2022-11-20T02:00:09;9.50;99.90
7738;DHT22;29398;45.328;5.558;2022-11-20T02:01:14;9.50;99.90
7738;DHT22;29398;45.328;5.558;2022-11-20T02:02:15;9.50;99.90
7738;DHT22;29398;45.328;5.558;2022-11-20T02:03:19;9.50;99.90
7738;DHT22;29398;45.328;5.558;2022-11-20T02:05:27;9.50;99.90
7738;DHT22;29398;45.328;5.558;2022-11-20T02:06:31;9.50;99.90
7738;DHT22;29398;45.328;5.558;2022-11-20T02:07:36;9.40;99.90
7738;DHT22;29398;45.328;5.558;2022-11-20T02:08:38;9.50;99.90
7738;DHT22;29398;45.328;5.558;2022-11-20T02:09:41;9.50;99.90
7738;DHT22;29398;45.328;5.558;2022-11-20T02:10:42;9.40;99.90
7738;DHT22;29398;45.328;5.558;2022-11-20T02:11:44;9.40;99.90
7738;DHT22;29398;45.328;5.558;2022-11-20T02:12:45;9.40;99.90
7738;DHT22;29398;45.328;5.558;2022-11-20T02:14:04;9.40;99.90
7738;DHT22;29398;45.328;5.558;2022-11-20T02:15:06;9.40;99.90
7738;DHT22;29398;45.328;5.558;2022-11-20T02:16:10;9.40;99.90
7738;DHT22;29398;45.328;5.558;2022-11-20T02:17:12;9.40;99.90
7738;DHT22;29398;45.328;5.558;2022-11-20T02:18:16;9.40;99.90
7738;DHT22;29398;45.328;5.558;2022-11-20T02:19:22;9.40;99.90
7738;DHT22;29398;45.328;5.558;2022-11-20T02:20:25;9.50;99.90
7738;DHT22;29398;45.328;5.558;2022-11-20T02:21:34;9.50;99.90
7738;DHT22;29398;45.328;5.558;2022-11-20T02:22:46;9.40;99.90
7738;DHT22;29398;45.328;5.558;2022-11-20T02:24:00;9.50;99.90
7738;DHT22;29398;45.328;5.558;2022-11-20T02:25:02;9.50;99.90
7738;DHT22;29398;45.328;5.558;2022-11-20T02:26:07;9.50;99.90
7738;DHT22;29398;45.328;5.558;2022-11-20T02:27:12;9.50;99.90
7738;DHT22;29398;45.328;5.558;2022-11-20T02:28:13;9.50;99.90
7738;DHT22;29398;45.328;5.558;2022-11-20T02:29:19;9.50;99.90
7738;DHT22;29398;45.328;5.558;2022-11-20T02:30:21;9.50;99.90
7738;DHT22;29398;45.328;5.558;2022-11-20T02:31:23;9.50;99.90
7738;DHT22;29398;45.328;5.558;2022-11-20T02:32:26;9.50;99.90
7738;DHT22;29398;45.328;5.558;2022-11-20T02:33:28;9.40;99.90
7738;DHT22;29398;45.328;5.558;2022-11-20T02:34:30;9.40;99.90
7738;DHT22;29398;45.328;5.558;2022-11-20T02:35:43;9.40;99.90
7738;DHT22;29398;45.328;5.558;2022-11-20T02:36:44;9.40;99.90
7738;DHT22;29398;45.328;5.558;2022-11-20T02:37:49;9.40;99.90
7738;DHT22;29398;45.328;5.558;2022-11-20T02:38:51;9.30;99.90
7738;DHT22;29398;45.328;5.558;2022-11-20T02:39:54;9.30;99.90
7738;DHT22;29398;45.328;5.558;2022-11-20T02:40:55;9.30;99.90
7738;DHT22;29398;45.328;5.558;2022-11-20T02:41:57;9.30;99.90
7738;DHT22;29398;45.328;5.558;2022-11-20T02:43:01;9.30;99.90
7738;DHT22;29398;45.328;5.558;2022-11-20T02:44:04;9.30;99.90
7738;DHT22;29398;45.328;5.558;2022-11-20T02:45:06;9.30;99.90
7738;DHT22;29398;45.328;5.558;2022-11-20T02:46:09;9.40;99.90
7738;DHT22;29398;45.328;5.558;2022-11-20T02:47:10;9.40;99.90
7738;DHT22;29398;45.328;5.558;2022-11-20T02:48:12;9.30;99.90
7738;DHT22;29398;45.328;5.558;2022-11-20T02:49:13;9.30;99.90
7738;DHT22;29398;45.328;5.558;2022-11-20T02:50:17;9.30;99.90
7738;DHT22;29398;45.328;5.558;2022-11-20T02:51:18;9.30;99.90
7738;DHT22;29398;45.328;5.558;2022-11-20T02:52:20;9.30;99.90
7738;DHT22;29398;45.328;5.558;2022-11-20T02:53:21;9.30;99.90
7738;DHT22;29398;45.328;5.558;2022-11-20T02:54:24;9.40;99.90
7738;DHT22;29398;45.328;5.558;2022-11-20T02:55:26;9.30;99.90
7738;DHT22;29398;45.328;5.558;2022-11-20T02:56:29;9.30;99.90
7738;DHT22;29398;45.328;5.558;2022-11-20T02:57:30;9.30;99.90
7738;DHT22;29398;45.328;5.558;2022-11-20T02:58:32;9.30;99.90
7738;DHT22;29398;45.328;5.558;2022-11-20T02:59:33;9.30;99.90
7738;DHT22;29398;45.328;5.558;2022-11-20T03:00:35;9.40;99.90
7738;DHT22;29398;45.328;5.558;2022-11-20T03:01:36;9.40;99.90
7738;DHT22;29398;45.328;5.558;2022-11-20T03:02:39;9.40;99.90
7738;DHT22;29398;45.328;5.558;2022-11-20T03:03:40;9.50;99.90
7738;DHT22;29398;45.328;5.558;2022-11-20T03:04:42;9.50;99.90
7738;DHT22;29398;45.328;5.558;2022-11-20T03:05:43;9.50;99.90
7738;DHT22;29398;45.328;5.558;2022-11-20T03:06:45;9.60;99.90
7738;DHT22;29398;45.328;5.558;2022-11-20T03:07:46;9.30;99.90
7738;DHT22;29398;45.328;5.558;2022-11-20T03:08:48;9.50;99.90
7738;DHT22;29398;45.328;5.558;2022-11-20T03:09:49;9.40;99.90
7738;DHT22;29398;45.328;5.558;2022-11-20T03:11:54;9.40;99.90
7738;DHT22;29398;45.328;5.558;2022-11-20T03:12:56;9.70;99.90
7738;DHT22;29398;45.328;5.558;2022-11-20T03:13:57;9.50;99.90
7738;DHT22;29398;45.328;5.558;2022-11-20T03:15:03;9.60;99.90
7738;DHT22;29398;45.328;5.558;2022-11-20T03:16:07;9.50;99.90
7738;DHT22;29398;45.328;5.558;2022-11-20T03:17:09;10.70;99.90
7738;DHT22;29398;45.328;5.558;2022-11-20T03:18:11;9.60;99.90
7738;DHT22;29398;45.328;5.558;2022-11-20T03:19:14;9.60;99.90
7738;DHT22;29398;45.328;5.558;2022-11-20T03:20:16;9.50;99.90
7738;DHT22;29398;45.328;5.558;2022-11-20T03:21:17;9.50;99.90
7738;DHT22;29398;45.328;5.558;2022-11-20T03:22:19;9.40;99.90
7738;DHT22;29398;45.328;5.558;2022-11-20T03:23:23;9.40;99.90
7738;DHT22;29398;45.328;5.558;2022-11-20T03:24:25;9.40;99.90
7738;DHT22;29398;45.328;5.558;2022-11-20T03:25:26;9.40;99.90
7738;DHT22;29398;45.328;5.558;2022-11-20T03:26:29;9.70;99.90
7738;DHT22;29398;45.328;5.558;2022-11-20T03:27:32;9.50;99.90
7738;DHT22;29398;45.328;5.558;2022-11-20T03:28:35;9.30;99.90
7738;DHT22;29398;45.328;5.558;2022-11-20T03:29:36;9.60;99.90
7738;DHT22;29398;45.328;5.558;2022-11-20T03:30:38;9.30;99.90
7738;DHT22;29398;45.328;5.558;2022-11-20T03:31:40;9.40;99.90
7738;DHT22;29398;45.328;5.558;2022-11-20T03:32:42;9.50;99.90
7738;DHT22;29398;45.328;5.558;2022-11-20T03:33:43;9.50;99.90
7738;DHT22;29398;45.328;5.558;2022-11-20T03:34:45;9.20;99.90
7738;DHT22;29398;45.328;5.558;2022-11-20T03:35:46;9.50;99.90
7738;DHT22;29398;45.328;5.558;2022-11-20T03:36:48;9.40;99.90
7738;DHT22;29398;45.328;5.558;2022-11-20T03:37:49;9.50;99.90
7738;DHT22;29398;45.328;5.558;2022-11-20T03:38:53;9.40;99.90
7738;DHT22;29398;45.328;5.558;2022-11-20T03:39:54;8.90;99.90
7738;DHT22;29398;45.328;5.558;2022-11-20T03:40:59;9.40;99.90
7738;DHT22;29398;45.328;5.558;2022-11-20T03:42:01;9.50;99.90
7738;DHT22;29398;45.328;5.558;2022-11-20T03:43:23;9.40;99.90
7738;DHT22;29398;45.328;5.558;2022-11-20T03:44:25;9.40;99.90
7738;DHT22;29398;45.328;5.558;2022-11-20T03:45:27;9.30;99.90
7738;DHT22;29398;45.328;5.558;2022-11-20T03:46:29;9.40;99.90
7738;DHT22;29398;45.328;5.558;2022-11-20T03:47:31;9.40;99.90
7738;DHT22;29398;45.328;5.558;2022-11-20T03:48:32;8.40;99.90
7738;DHT22;29398;45.328;5.558;2022-11-20T03:49:34;9.40;99.90
7738;DHT22;29398;45.328;5.558;2022-11-20T03:50:35;9.40;99.90
7738;DHT22;29398;45.328;5.558;2022-11-20T03:51:37;9.40;99.90
7738;DHT22;29398;45.328;5.558;2022-11-20T03:52:38;9.50;99.90
7738;DHT22;29398;45.328;5.558;2022-11-20T03:53:41;9.50;99.90
7738;DHT22;29398;45.328;5.558;2022-11-20T03:54:44;9.40;99.90
7738;DHT22;29398;45.328;5.558;2022-11-20T03:55:45;9.40;99.90
7738;DHT22;29398;45.328;5.558;2022-11-20T03:56:47;9.50;99.90
7738;DHT22;29398;45.328;5.558;2022-11-20T03:57:49;9.40;99.90
7738;DHT22;29398;45.328;5.558;2022-11-20T03:58:51;9.50;99.90
7738;DHT22;29398;45.328;5.558;2022-11-20T03:59:52;9.40;99.90
7738;DHT22;29398;45.328;5.558;2022-11-20T04:00:54;9.40;99.90
7738;DHT22;29398;45.328;5.558;2022-11-20T04:01:55;9.50;99.90
7738;DHT22;29398;45.328;5.558;2022-11-20T04:02:58;9.30;99.90
7738;DHT22;29398;45.328;5.558;2022-11-20T04:03:59;9.40;99.90
7738;DHT22;29398;45.328;5.558;2022-11-20T04:05:01;9.40;99.90
7738;DHT22;29398;45.328;5.558;2022-11-20T04:06:04;9.30;99.90
7738;DHT22;29398;45.328;5.558;2022-11-20T04:07:07;9.40;99.90
7738;DHT22;29398;45.328;5.558;2022-11-20T04:08:08;9.50;99.90
7738;DHT22;29398;45.328;5.558;2022-11-20T04:09:10;9.40;99.90
7738;DHT22;29398;45.328;5.558;2022-11-20T04:10:14;9.30;99.90
7738;DHT22;29398;45.328;5.558;2022-11-20T04:11:17;9.20;99.90
7738;DHT22;29398;45.328;5.558;2022-11-20T04:12:19;9.40;99.90
7738;DHT22;29398;45.328;5.558;2022-11-20T04:13:22;9.40;99.90
7738;DHT22;29398;45.328;5.558;2022-11-20T04:14:23;9.40;99.90
7738;DHT22;29398;45.328;5.558;2022-11-20T04:15:25;9.40;99.90
7738;DHT22;29398;45.328;5.558;2022-11-20T04:16:30;9.30;99.90
7738;DHT22;29398;45.328;5.558;2022-11-20T04:17:32;9.20;99.90
7738;DHT22;29398;45.328;5.558;2022-11-20T04:18:34;9.30;99.90
7738;DHT22;29398;45.328;5.558;2022-11-20T04:19:36;9.50;99.90
7738;DHT22;29398;45.328;5.558;2022-11-20T04:20:37;9.50;99.90
7738;DHT22;29398;45.328;5.558;2022-11-20T04:21:40;9.20;99.90
7738;DHT22;29398;45.328;5.558;2022-11-20T04:22:41;9.30;99.90
7738;DHT22;29398;45.328;5.558;2022-11-20T04:23:43;9.20;99.90
7738;DHT22;29398;45.328;5.558;2022-11-20T04:24:44;9.20;99.90
7738;DHT22;29398;45.328;5.558;2022-11-20T04:25:46;9.20;99.90
7738;DHT22;29398;45.328;5.558;2022-11-20T04:26:47;9.20;99.90
7738;DHT22;29398;45.328;5.558;2022-11-20T04:27:49;9.20;99.90
7738;DHT22;29398;45.328;5.558;2022-11-20T04:28:51;9.30;99.90
7738;DHT22;29398;45.328;5.558;2022-11-20T04:29:53;9.20;99.90
7738;DHT22;29398;45.328;5.558;2022-11-20T04:30:58;9.20;99.90
7738;DHT22;29398;45.328;5.558;2022-11-20T04:32:02;9.20;99.90
7738;DHT22;29398;45.328;5.558;2022-11-20T04:33:04;9.20;99.90
7738;DHT22;29398;45.328;5.558;2022-11-20T04:34:07;9.20;99.90
7738;DHT22;29398;45.328;5.558;2022-11-20T04:35:08;9.10;99.90
7738;DHT22;29398;45.328;5.558;2022-11-20T04:36:12;9.30;99.90
7738;DHT22;29398;45.328;5.558;2022-11-20T04:37:13;9.30;99.90
7738;DHT22;29398;45.328;5.558;2022-11-20T04:38:15;9.10;99.90
7738;DHT22;29398;45.328;5.558;2022-11-20T04:39:16;9.10;99.90
7738;DHT22;29398;45.328;5.558;2022-11-20T04:40:18;9.10;99.90
7738;DHT22;29398;45.328;5.558;2022-11-20T04:41:21;9.10;99.90
7738;DHT22;29398;45.328;5.558;2022-11-20T04:42:23;9.10;99.90
7738;DHT22;29398;45.328;5.558;2022-11-20T04:43:31;9.10;99.90
7738;DHT22;29398;45.328;5.558;2022-11-20T04:44:34;9.10;99.90
7738;DHT22;29398;45.328;5.558;2022-11-20T04:45:35;9.00;99.90
7738;DHT22;29398;45.328;5.558;2022-11-20T04:46:39;9.00;99.90
7738;DHT22;29398;45.328;5.558;2022-11-20T04:47:40;9.10;99.90
7738;DHT22;29398;45.328;5.558;2022-11-20T04:48:42;9.10;99.90
7738;DHT22;29398;45.328;5.558;2022-11-20T04:49:44;9.10;99.90
7738;DHT22;29398;45.328;5.558;2022-11-20T04:50:46;9.10;99.90
7738;DHT22;29398;45.328;5.558;2022-11-20T04:51:47;9.10;99.90
7738;DHT22;29398;45.328;5.558;2022-11-20T04:52:49;9.20;99.90
7738;DHT22;29398;45.328;5.558;2022-11-20T04:53:50;9.20;99.90
7738;DHT22;29398;45.328;5.558;2022-11-20T04:54:52;9.10;99.90
7738;DHT22;29398;45.328;5.558;2022-11-20T04:55:59;9.10;99.90
7738;DHT22;29398;45.328;5.558;2022-11-20T04:57:01;9.20;99.90
7738;DHT22;29398;45.328;5.558;2022-11-20T04:58:02;9.20;99.90
7738;DHT22;29398;45.328;5.558;2022-11-20T04:59:04;9.20;99.90
7738;DHT22;29398;45.328;5.558;2022-11-20T05:00:08;9.10;99.90
7738;DHT22;29398;45.328;5.558;2022-11-20T05:01:12;9.00;99.90
7738;DHT22;29398;45.328;5.558;2022-11-20T05:02:13;9.20;99.90
7738;DHT22;29398;45.328;5.558;2022-11-20T05:03:15;9.10;99.90
7738;DHT22;29398;45.328;5.558;2022-11-20T05:04:17;9.20;99.90
7738;DHT22;29398;45.328;5.558;2022-11-20T05:05:19;9.10;99.90
7738;DHT22;29398;45.328;5.558;2022-11-20T05:06:21;9.20;99.90
7738;DHT22;29398;45.328;5.558;2022-11-20T05:07:23;9.10;99.90
7738;DHT22;29398;45.328;5.558;2022-11-20T05:08:24;9.00;99.90
7738;DHT22;29398;45.328;5.558;2022-11-20T05:09:26;9.10;99.90
7738;DHT22;29398;45.328;5.558;2022-11-20T05:10:27;9.10;99.90
7738;DHT22;29398;45.328;5.558;2022-11-20T05:11:31;9.10;99.90
7738;DHT22;29398;45.328;5.558;2022-11-20T05:12:32;9.10;99.90
7738;DHT22;29398;45.328;5.558;2022-11-20T05:13:35;9.20;99.90
7738;DHT22;29398;45.328;5.558;2022-11-20T05:14:36;9.00;99.90
7738;DHT22;29398;45.328;5.558;2022-11-20T05:15:40;9.00;99.90
7738;DHT22;29398;45.328;5.558;2022-11-20T05:16:41;9.00;99.90
7738;DHT22;29398;45.328;5.558;2022-11-20T05:17:47;9.00;99.90
7738;DHT22;29398;45.328;5.558;2022-11-20T05:18:48;8.90;99.90
7738;DHT22;29398;45.328;5.558;2022-11-20T05:19:50;9.00;99.90
7738;DHT22;29398;45.328;5.558;2022-11-20T05:20:55;9.00;99.90
7738;DHT22;29398;45.328;5.558;2022-11-20T05:21:57;9.00;99.90
7738;DHT22;29398;45.328;5.558;2022-11-20T05:22:58;8.90;99.90
7738;DHT22;29398;45.328;5.558;2022-11-20T05:24:00;8.90;99.90
7738;DHT22;29398;45.328;5.558;2022-11-20T05:25:02;8.90;99.90
7738;DHT22;29398;45.328;5.558;2022-11-20T05:26:05;8.90;99.90
7738;DHT22;29398;45.328;5.558;2022-11-20T05:27:06;8.70;99.90
7738;DHT22;29398;45.328;5.558;2022-11-20T05:28:08;8.70;99.90
7738;DHT22;29398;45.328;5.558;2022-11-20T05:29:10;8.80;99.90
7738;DHT22;29398;45.328;5.558;2022-11-20T05:30:14;8.70;99.90
7738;DHT22;29398;45.328;5.558;2022-11-20T05:31:19;8.70;99.90
7738;DHT22;29398;45.328;5.558;2022-11-20T05:32:21;8.70;99.90
7738;DHT22;29398;45.328;5.558;2022-11-20T05:33:25;8.70;99.90
7738;DHT22;29398;45.328;5.558;2022-11-20T05:34:27;8.70;99.90
7738;DHT22;29398;45.328;5.558;2022-11-20T05:35:28;8.70;99.90
7738;DHT22;29398;45.328;5.558;2022-11-20T05:36:30;8.70;99.90
7738;DHT22;29398;45.328;5.558;2022-11-20T05:37:31;8.70;99.90
7738;DHT22;29398;45.328;5.558;2022-11-20T05:38:33;8.80;99.90
7738;DHT22;29398;45.328;5.558;2022-11-20T05:39:34;8.70;99.90
7738;DHT22;29398;45.328;5.558;2022-11-20T05:40:37;8.70;99.90
7738;DHT22;29398;45.328;5.558;2022-11-20T05:41:38;8.90;99.90
7738;DHT22;29398;45.328;5.558;2022-11-20T05:42:40;8.70;99.90
7738;DHT22;29398;45.328;5.558;2022-11-20T05:43:42;8.70;99.90
7738;DHT22;29398;45.328;5.558;2022-11-20T05:44:45;8.60;99.90
7738;DHT22;29398;45.328;5.558;2022-11-20T05:45:52;8.80;99.90
7738;DHT22;29398;45.328;5.558;2022-11-20T05:46:58;8.60;99.90
7738;DHT22;29398;45.328;5.558;2022-11-20T05:47:59;8.60;99.90
7738;DHT22;29398;45.328;5.558;2022-11-20T05:49:02;8.60;99.90
7738;DHT22;29398;45.328;5.558;2022-11-20T05:50:03;8.40;99.90
7738;DHT22;29398;45.328;5.558;2022-11-20T05:51:07;8.40;99.90
7738;DHT22;29398;45.328;5.558;2022-11-20T05:52:08;8.40;99.90
7738;DHT22;29398;45.328;5.558;2022-11-20T05:53:10;8.40;99.90
7738;DHT22;29398;45.328;5.558;2022-11-20T05:54:11;8.30;99.90
7738;DHT22;29398;45.328;5.558;2022-11-20T05:55:14;8.50;99.90
7738;DHT22;29398;45.328;5.558;2022-11-20T05:56:16;8.50;99.90
7738;DHT22;29398;45.328;5.558;2022-11-20T05:57:18;8.40;99.90
7738;DHT22;29398;45.328;5.558;2022-11-20T05:58:19;8.20;99.90
7738;DHT22;29398;45.328;5.558;2022-11-20T05:59:21;8.50;99.90
7738;DHT22;29398;45.328;5.558;2022-11-20T06:00:22;8.30;99.90
7738;DHT22;29398;45.328;5.558;2022-11-20T06:01:25;8.40;99.90
7738;DHT22;29398;45.328;5.558;2022-11-20T06:02:28;8.30;99.90
7738;DHT22;29398;45.328;5.558;2022-11-20T06:03:30;8.30;99.90
7738;DHT22;29398;45.328;5.558;2022-11-20T06:04:31;8.30;99.90
7738;DHT22;29398;45.328;5.558;2022-11-20T06:05:33;8.20;99.90
7738;DHT22;29398;45.328;5.558;2022-11-20T06:06:34;8.30;99.90
7738;DHT22;29398;45.328;5.558;2022-11-20T06:07:36;8.20;99.90
7738;DHT22;29398;45.328;5.558;2022-11-20T06:08:37;8.30;99.90
7738;DHT22;29398;45.328;5.558;2022-11-20T06:09:39;8.10;99.90
7738;DHT22;29398;45.328;5.558;2022-11-20T06:10:41;8.10;99.90
7738;DHT22;29398;45.328;5.558;2022-11-20T06:11:43;8.10;99.90
7738;DHT22;29398;45.328;5.558;2022-11-20T06:12:44;8.10;99.90
7738;DHT22;29398;45.328;5.558;2022-11-20T06:13:47;8.10;99.90
7738;DHT22;29398;45.328;5.558;2022-11-20T06:14:48;8.10;99.90
7738;DHT22;29398;45.328;5.558;2022-11-20T06:15:50;7.80;99.90
7738;DHT22;29398;45.328;5.558;2022-11-20T06:16:51;7.80;99.90
7738;DHT22;29398;45.328;5.558;2022-11-20T06:17:55;7.90;99.90
7738;DHT22;29398;45.328;5.558;2022-11-20T06:18:56;8.00;99.90
7738;DHT22;29398;45.328;5.558;2022-11-20T06:19:58;7.90;99.90
7738;DHT22;29398;45.328;5.558;2022-11-20T06:21:01;7.90;99.90
7738;DHT22;29398;45.328;5.558;2022-11-20T06:22:03;7.90;99.90
7738;DHT22;29398;45.328;5.558;2022-11-20T06:23:04;7.90;99.90
7738;DHT22;29398;45.328;5.558;2022-11-20T06:24:08;7.80;99.90
7738;DHT22;29398;45.328;5.558;2022-11-20T06:25:09;7.80;99.90
7738;DHT22;29398;45.328;5.558;2022-11-20T06:26:13;7.80;99.90
7738;DHT22;29398;45.328;5.558;2022-11-20T06:27:14;7.80;99.90
7738;DHT22;29398;45.328;5.558;2022-11-20T06:28:16;7.70;99.90
7738;DHT22;29398;45.328;5.558;2022-11-20T06:29:17;7.80;99.90
7738;DHT22;29398;45.328;5.558;2022-11-20T06:30:19;7.50;99.90
7738;DHT22;29398;45.328;5.558;2022-11-20T06:31:22;7.50;99.90
7738;DHT22;29398;45.328;5.558;2022-11-20T06:32:25;7.70;99.90
7738;DHT22;29398;45.328;5.558;2022-11-20T06:33:28;7.50;99.90
7738;DHT22;29398;45.328;5.558;2022-11-20T06:34:30;7.60;99.90
7738;DHT22;29398;45.328;5.558;2022-11-20T06:35:31;7.40;99.90
7738;DHT22;29398;45.328;5.558;2022-11-20T06:36:33;7.50;99.90
7738;DHT22;29398;45.328;5.558;2022-11-20T06:37:34;7.40;99.90
7738;DHT22;29398;45.328;5.558;2022-11-20T06:38:37;7.30;99.90
7738;DHT22;29398;45.328;5.558;2022-11-20T06:39:38;7.30;99.90
7738;DHT22;29398;45.328;5.558;2022-11-20T06:40:40;7.40;99.90
7738;DHT22;29398;45.328;5.558;2022-11-20T06:41:41;7.30;99.90
7738;DHT22;29398;45.328;5.558;2022-11-20T06:42:44;7.30;99.90
7738;DHT22;29398;45.328;5.558;2022-11-20T06:43:45;7.20;99.90
7738;DHT22;29398;45.328;5.558;2022-11-20T06:44:47;7.20;99.90
7738;DHT22;29398;45.328;5.558;2022-11-20T06:45:52;7.20;99.90
7738;DHT22;29398;45.328;5.558;2022-11-20T06:46:53;7.20;99.90
7738;DHT22;29398;45.328;5.558;2022-11-20T06:47:57;7.30;99.90
7738;DHT22;29398;45.328;5.558;2022-11-20T06:48:59;7.30;99.90
7738;DHT22;29398;45.328;5.558;2022-11-20T06:50:01;7.20;99.90
7738;DHT22;29398;45.328;5.558;2022-11-20T06:51:03;7.30;99.90